Time;durP1;ratioP1;P1;durP2;ratioP2;P2;SDS_P1;SDS_P2;PMS_P1;PMS_P2;Temp;Humidity;BMP_temperature;BMP_pressure;BME280_temperature;BME280_humidity;BME280_pressure;Samples;Min_cycle;Max_cycle;Signal;HPM_P1;HPM_P2
2022/01/26 00:00:29;;;;;;;;;;;4.40;75.60;;;;;;4975862;28;19910;-73
2022/01/26 00:05:51;;;;;;;;;;;4.30;76.90;;;;;;4975592;28;19937;-74
2022/01/26 00:08:22;;;;;;;;;;;4.20;77.30;;;;;;4975742;28;20335;-73
2022/01/26 00:10:48;;;;;;;;;;;4.40;77.60;;;;;;4975520;28;20350;-72
2022/01/26 00:13:13;;;;;;;;;;;4.30;77.30;;;;;;4975412;28;19958;-74
2022/01/26 00:15:39;;;;;;;;;;;4.30;78.30;;;;;;4975675;28;19922;-74
2022/01/26 00:18:04;;;;;;;;;;;4.20;77.70;;;;;;4975354;28;20417;-75
2022/01/26 00:20:40;;;;;;;;;;;4.20;78.70;;;;;;4975469;28;19932;-74
2022/01/26 00:24:08;;;;;;;;;;;4.30;78.20;;;;;;4975483;28;19937;-74
2022/01/26 00:26:10;;;;;;;;;;;4.20;77.90;;;;;;4971493;28;19924;-73
2022/01/26 00:28:58;;;;;;;;;;;4.20;78.30;;;;;;4975170;28;20354;-74
2022/01/26 00:39:33;;;;;;;;;;;4.30;77.70;;;;;;4974973;28;19917;-74
2022/01/26 00:42:00;;;;;;;;;;;4.30;77.70;;;;;;4974887;28;19914;-74
2022/01/26 00:44:33;;;;;;;;;;;4.10;77.70;;;;;;4974726;28;20274;-73
2022/01/26 00:46:59;;;;;;;;;;;4.10;78.00;;;;;;4975063;28;19949;-74
2022/01/26 00:49:25;;;;;;;;;;;4.10;77.90;;;;;;4974696;28;19917;-74
2022/01/26 00:51:52;;;;;;;;;;;4.20;77.70;;;;;;4974719;28;19910;-73
2022/01/26 00:54:17;;;;;;;;;;;4.30;77.30;;;;;;4974713;28;20005;-73
2022/01/26 00:56:43;;;;;;;;;;;4.30;77.00;;;;;;4974689;28;19958;-75
2022/01/26 00:59:10;;;;;;;;;;;4.30;76.70;;;;;;4974770;28;19921;-75
2022/01/26 01:01:36;;;;;;;;;;;4.30;76.50;;;;;;4973361;28;19910;-74
2022/01/26 01:04:03;;;;;;;;;;;4.40;76.80;;;;;;4974696;28;20389;-73
2022/01/26 01:06:34;;;;;;;;;;;4.50;76.30;;;;;;4974509;28;19929;-74
2022/01/26 01:09:00;;;;;;;;;;;4.40;75.80;;;;;;4974839;28;19946;-75
2022/01/26 01:11:26;;;;;;;;;;;4.20;75.90;;;;;;4974497;28;19993;-75
2022/01/26 01:13:54;;;;;;;;;;;4.20;76.60;;;;;;4974422;28;19957;-73
2022/01/26 01:16:22;;;;;;;;;;;4.20;77.30;;;;;;4976100;28;19914;-74
2022/01/26 01:29:43;;;;;;;;;;;3.90;77.80;;;;;;4968511;28;19936;-73
2022/01/26 01:32:27;;;;;;;;;;;4.00;78.40;;;;;;4978312;28;20337;-74
2022/01/26 01:34:53;;;;;;;;;;;3.90;79.40;;;;;;4978311;28;19910;-74
2022/01/26 01:37:18;;;;;;;;;;;3.90;78.90;;;;;;4978196;28;19917;-74
2022/01/26 01:39:44;;;;;;;;;;;4.00;78.70;;;;;;4977981;28;19964;-74
2022/01/26 01:42:10;;;;;;;;;;;4.00;78.40;;;;;;4978324;28;20001;-74
2022/01/26 01:44:36;;;;;;;;;;;4.00;78.60;;;;;;4978225;28;20008;-74
2022/01/26 01:47:02;;;;;;;;;;;4.00;78.50;;;;;;4978452;28;19961;-74
2022/01/26 01:49:28;;;;;;;;;;;3.90;78.60;;;;;;4977960;28;19911;-74
2022/01/26 01:52:01;;;;;;;;;;;3.90;78.40;;;;;;4978245;28;19910;-74
2022/01/26 01:54:27;;;;;;;;;;;3.80;78.20;;;;;;4977912;28;19916;-74
2022/01/26 01:56:57;;;;;;;;;;;3.80;78.70;;;;;;4977929;28;20004;-73
2022/01/26 01:59:30;;;;;;;;;;;3.90;78.50;;;;;;4977958;28;19910;-72
2022/01/26 02:01:59;;;;;;;;;;;3.90;78.60;;;;;;4977964;28;20259;-74
2022/01/26 02:04:24;;;;;;;;;;;4.00;78.30;;;;;;4978583;28;20268;-74
2022/01/26 02:06:50;;;;;;;;;;;4.20;77.60;;;;;;4977922;28;19937;-74
2022/01/26 02:09:16;;;;;;;;;;;4.20;77.10;;;;;;4976655;28;19917;-74
2022/01/26 02:11:54;;;;;;;;;;;4.30;76.90;;;;;;4976650;28;20344;-73
2022/01/26 02:14:28;;;;;;;;;;;4.40;76.40;;;;;;4977522;28;19957;-75
2022/01/26 02:17:29;;;;;;;;;;;4.30;76.50;;;;;;4977404;28;19933;-74
2022/01/26 03:03:20;;;;;;;;;;;3.40;80.70;;;;;;4976689;28;19917;-74
2022/01/26 03:05:58;;;;;;;;;;;3.50;79.90;;;;;;4976557;28;19922;-73
2022/01/26 03:08:32;;;;;;;;;;;3.70;80.20;;;;;;4977038;28;19940;-75
2022/01/26 03:11:03;;;;;;;;;;;3.80;78.80;;;;;;4976383;28;19910;-74
2022/01/26 03:13:32;;;;;;;;;;;3.80;78.10;;;;;;4976711;28;20376;-74
2022/01/26 03:16:04;;;;;;;;;;;3.80;78.00;;;;;;4976621;28;19911;-73
2022/01/26 03:21:10;;;;;;;;;;;3.80;77.50;;;;;;4976251;28;20286;-73
2022/01/26 03:34:10;;;;;;;;;;;4.10;76.30;;;;;;4976038;28;20381;-74
2022/01/26 03:36:47;;;;;;;;;;;4.10;76.40;;;;;;4975840;28;19914;-74
2022/01/26 03:39:16;;;;;;;;;;;4.00;76.30;;;;;;4975236;28;19910;-74
2022/01/26 03:41:47;;;;;;;;;;;3.80;76.60;;;;;;4976131;28;19972;-73
2022/01/26 03:44:13;;;;;;;;;;;3.50;77.80;;;;;;4975845;28;19918;-74
2022/01/26 03:46:39;;;;;;;;;;;3.70;78.40;;;;;;4974455;28;19917;-73
2022/01/26 03:49:05;;;;;;;;;;;3.90;77.80;;;;;;4975730;28;19914;-73
2022/01/26 03:51:31;;;;;;;;;;;3.90;77.30;;;;;;4975421;28;19910;-73
2022/01/26 03:53:57;;;;;;;;;;;4.00;77.00;;;;;;4975933;28;19996;-73
2022/01/26 03:56:22;;;;;;;;;;;4.10;76.60;;;;;;4975623;28;19944;-73
2022/01/26 03:58:48;;;;;;;;;;;4.10;76.60;;;;;;4975588;28;19914;-74
2022/01/26 04:01:13;;;;;;;;;;;4.00;76.30;;;;;;4974384;28;20359;-73
2022/01/26 04:03:39;;;;;;;;;;;3.90;76.70;;;;;;4975152;28;20051;-73
2022/01/26 04:06:05;;;;;;;;;;;3.90;76.80;;;;;;4975406;28;20001;-74
2022/01/26 04:08:32;;;;;;;;;;;3.80;77.00;;;;;;4975540;28;19922;-73
2022/01/26 04:13:42;;;;;;;;;;;3.80;77.40;;;;;;4975509;28;19965;-74
2022/01/26 04:16:08;;;;;;;;;;;3.70;77.30;;;;;;4975256;28;19914;-73
2022/01/26 04:18:37;;;;;;;;;;;3.70;77.20;;;;;;4975267;28;19910;-73
2022/01/26 04:21:13;;;;;;;;;;;3.40;78.10;;;;;;4975214;28;19910;-73
2022/01/26 04:23:53;;;;;;;;;;;3.40;79.10;;;;;;4974963;28;19957;-73
2022/01/26 04:26:24;;;;;;;;;;;3.60;79.40;;;;;;4973798;28;20382;-74
2022/01/26 04:28:55;;;;;;;;;;;4.00;78.50;;;;;;4975337;28;19920;-73
2022/01/26 04:31:22;;;;;;;;;;;4.20;77.30;;;;;;4974879;28;19911;-72
2022/01/26 04:33:48;;;;;;;;;;;4.30;76.60;;;;;;4975137;28;19968;-73
2022/01/26 04:36:19;;;;;;;;;;;4.10;76.30;;;;;;4974887;28;19993;-73
2022/01/26 04:38:50;;;;;;;;;;;4.10;76.40;;;;;;4974902;28;19910;-73
2022/01/26 04:41:39;;;;;;;;;;;4.00;77.00;;;;;;4974608;28;19917;-73
2022/01/26 04:44:27;;;;;;;;;;;3.90;76.60;;;;;;4974951;28;20286;-72
2022/01/26 04:46:52;;;;;;;;;;;3.80;76.90;;;;;;5006121;28;19910;-74
2022/01/26 04:49:18;;;;;;;;;;;3.80;76.90;;;;;;4974670;28;20413;-73
2022/01/26 04:51:44;;;;;;;;;;;3.70;77.00;;;;;;4973728;28;20093;-73
2022/01/26 04:54:10;;;;;;;;;;;3.60;77.10;;;;;;4974860;28;20409;-75
2022/01/26 04:56:36;;;;;;;;;;;3.60;77.30;;;;;;4974718;28;20060;-73
2022/01/26 04:59:02;;;;;;;;;;;3.50;77.60;;;;;;4974914;28;20369;-73
2022/01/26 05:01:27;;;;;;;;;;;3.50;77.60;;;;;;4974697;28;19910;-73
2022/01/26 05:03:53;;;;;;;;;;;3.40;77.20;;;;;;4974480;28;20386;-74
2022/01/26 05:06:19;;;;;;;;;;;3.40;77.80;;;;;;4974607;28;20401;-74
2022/01/26 05:08:44;;;;;;;;;;;3.40;78.00;;;;;;4974373;28;19910;-73
2022/01/26 05:11:14;;;;;;;;;;;3.50;77.50;;;;;;4973459;28;20289;-73
2022/01/26 05:13:39;;;;;;;;;;;3.50;77.20;;;;;;4974737;28;19921;-73
2022/01/26 05:16:07;;;;;;;;;;;3.60;76.90;;;;;;4974479;28;19993;-73
2022/01/26 05:18:33;;;;;;;;;;;3.60;76.00;;;;;;4974715;28;19910;-73
2022/01/26 05:20:59;;;;;;;;;;;3.70;75.50;;;;;;4974705;28;19964;-74
2022/01/26 05:23:24;;;;;;;;;;;3.60;75.90;;;;;;4974527;28;19910;-74
2022/01/26 05:25:50;;;;;;;;;;;3.80;75.60;;;;;;4974428;28;19914;-74
2022/01/26 05:28:16;;;;;;;;;;;4.30;73.00;;;;;;4974520;28;20362;-73
2022/01/26 05:30:41;;;;;;;;;;;4.60;71.30;;;;;;4974426;28;20062;-74
2022/01/26 05:33:07;;;;;;;;;;;4.80;69.70;;;;;;4974233;28;19910;-73
2022/01/26 05:35:33;;;;;;;;;;;4.90;68.80;;;;;;4968189;28;19910;-73
2022/01/26 05:37:58;;;;;;;;;;;5.00;68.40;;;;;;4957413;28;19917;-73
2022/01/26 05:40:24;;;;;;;;;;;4.70;68.70;;;;;;4953859;29;20414;-72
2022/01/26 05:42:49;;;;;;;;;;;4.60;68.70;;;;;;4954962;28;19922;-73
2022/01/26 05:45:28;;;;;;;;;;;4.60;69.30;;;;;;4954983;29;20422;-72
2022/01/26 05:47:53;;;;;;;;;;;4.40;69.60;;;;;;4954995;28;20358;-73
2022/01/26 05:50:19;;;;;;;;;;;4.40;69.50;;;;;;4955096;28;19981;-73
2022/01/26 05:52:45;;;;;;;;;;;4.50;69.90;;;;;;4954565;28;19914;-73
2022/01/26 05:55:10;;;;;;;;;;;4.60;68.60;;;;;;4955160;28;19997;-74
2022/01/26 05:57:36;;;;;;;;;;;4.60;68.60;;;;;;4954948;29;20005;-72
2022/01/26 06:00:03;;;;;;;;;;;4.60;69.30;;;;;;4955008;29;19911;-73
2022/01/26 06:02:30;;;;;;;;;;;4.60;68.40;;;;;;4970932;28;19910;-73
2022/01/26 06:04:55;;;;;;;;;;;4.60;68.20;;;;;;4957016;29;19918;-73
2022/01/26 06:07:21;;;;;;;;;;;4.60;68.60;;;;;;4958254;29;20515;-72
2022/01/26 06:09:47;;;;;;;;;;;4.50;68.70;;;;;;4958135;29;19918;-73
2022/01/26 06:12:12;;;;;;;;;;;4.60;68.20;;;;;;4958448;28;19919;-74
2022/01/26 06:14:38;;;;;;;;;;;4.70;68.60;;;;;;4958341;29;19914;-74
2022/01/26 06:17:03;;;;;;;;;;;4.70;67.30;;;;;;4958196;28;20041;-74
2022/01/26 06:19:29;;;;;;;;;;;4.70;67.10;;;;;;4958176;28;20061;-73
2022/01/26 06:21:54;;;;;;;;;;;4.80;67.20;;;;;;4958086;28;20264;-73
2022/01/26 06:24:20;;;;;;;;;;;4.80;67.20;;;;;;4957887;29;19922;-73
2022/01/26 06:26:45;;;;;;;;;;;4.80;67.90;;;;;;4958228;29;19910;-73
2022/01/26 06:29:11;;;;;;;;;;;4.70;67.10;;;;;;4957837;29;19910;-73
2022/01/26 06:31:40;;;;;;;;;;;4.70;67.20;;;;;;4957932;28;19914;-73
2022/01/26 06:34:07;;;;;;;;;;;4.80;67.10;;;;;;4972833;28;19910;-72
2022/01/26 06:36:33;;;;;;;;;;;4.80;66.80;;;;;;4957830;28;20383;-73
2022/01/26 06:38:58;;;;;;;;;;;4.90;66.30;;;;;;4957894;28;20005;-74
2022/01/26 06:41:26;;;;;;;;;;;4.90;66.20;;;;;;4957745;28;20325;-73
2022/01/26 06:44:00;;;;;;;;;;;4.90;65.80;;;;;;4957711;28;19915;-73
2022/01/26 06:46:40;;;;;;;;;;;4.80;65.70;;;;;;4972536;28;19949;-74
2022/01/26 06:51:40;;;;;;;;;;;4.80;66.00;;;;;;4957490;28;19912;-75
2022/01/26 06:54:05;;;;;;;;;;;4.70;66.00;;;;;;4972592;28;19965;-67
2022/01/26 06:56:31;;;;;;;;;;;4.80;65.40;;;;;;4957375;29;19953;-68
2022/01/26 06:58:56;;;;;;;;;;;5.00;65.70;;;;;;4957552;29;19921;-72
2022/01/26 07:01:22;;;;;;;;;;;5.10;64.20;;;;;;4957574;28;19918;-65
2022/01/26 07:03:48;;;;;;;;;;;5.00;64.60;;;;;;4957250;29;19925;-73
2022/01/26 07:06:13;;;;;;;;;;;5.10;64.30;;;;;;4957143;28;19923;-72
2022/01/26 07:08:39;;;;;;;;;;;5.00;63.90;;;;;;4957412;28;19911;-68
2022/01/26 07:11:05;;;;;;;;;;;4.90;64.10;;;;;;4957020;29;20572;-73
2022/01/26 07:13:30;;;;;;;;;;;5.00;64.10;;;;;;4956080;28;20347;-75
2022/01/26 07:21:27;;;;;;;;;;;6.20;68.50;;;;;;4956802;28;19918;-63
2022/01/26 07:23:57;;;;;;;;;;;6.60;64.20;;;;;;4956715;28;20278;-67
2022/01/26 07:26:28;;;;;;;;;;;6.60;62.00;;;;;;4956912;28;20354;-63
2022/01/26 07:28:55;;;;;;;;;;;6.50;59.90;;;;;;4956861;28;19911;-64
2022/01/26 07:31:21;;;;;;;;;;;6.70;60.50;;;;;;4958026;28;19911;-69
2022/01/26 07:33:53;;;;;;;;;;;6.30;58.60;;;;;;4975445;28;19969;-72
2022/01/26 07:36:18;;;;;;;;;;;5.90;59.70;;;;;;4975349;28;20255;-74
2022/01/26 07:38:44;;;;;;;;;;;5.70;60.70;;;;;;4975302;28;19914;-72
2022/01/26 07:41:09;;;;;;;;;;;5.60;60.90;;;;;;4974704;28;19918;-73
2022/01/26 07:43:35;;;;;;;;;;;5.50;61.10;;;;;;4971364;28;19910;-77
2022/01/26 07:46:01;;;;;;;;;;;5.50;61.50;;;;;;4975067;28;19918;-75
2022/01/26 07:48:26;;;;;;;;;;;5.70;61.20;;;;;;4974389;28;19917;-73
2022/01/26 07:50:52;;;;;;;;;;;5.70;60.80;;;;;;4973077;28;19914;-68
2022/01/26 07:53:19;;;;;;;;;;;5.80;60.20;;;;;;4974507;28;19917;-71
2022/01/26 07:55:44;;;;;;;;;;;5.90;60.10;;;;;;4974595;28;19918;-68
2022/01/26 07:58:11;;;;;;;;;;;5.90;59.40;;;;;;4975032;28;20371;-71
2022/01/26 08:00:37;;;;;;;;;;;6.00;58.70;;;;;;4975083;28;19910;-69
2022/01/26 08:03:02;;;;;;;;;;;6.00;59.10;;;;;;4974916;28;20009;-69
2022/01/26 08:05:28;;;;;;;;;;;6.00;59.40;;;;;;4974734;28;20271;-70
2022/01/26 08:07:54;;;;;;;;;;;5.90;59.60;;;;;;4974808;28;19910;-66
2022/01/26 08:10:19;;;;;;;;;;;6.10;59.40;;;;;;4975096;28;19917;-73
2022/01/26 08:12:45;;;;;;;;;;;6.30;58.80;;;;;;4974812;28;19953;-76
2022/01/26 08:15:10;;;;;;;;;;;6.40;58.60;;;;;;4972482;28;19914;-74
2022/01/26 08:17:37;;;;;;;;;;;6.20;58.90;;;;;;4974820;28;19973;-67
2022/01/26 08:20:04;;;;;;;;;;;6.20;59.10;;;;;;4974788;28;20267;-65
2022/01/26 08:22:30;;;;;;;;;;;6.40;58.80;;;;;;4974062;28;19925;-68
2022/01/26 08:24:56;;;;;;;;;;;6.50;58.50;;;;;;4986632;28;20016;-70
2022/01/26 08:27:24;;;;;;;;;;;6.70;57.70;;;;;;4973974;28;20060;-71
2022/01/26 08:29:59;;;;;;;;;;;6.50;58.20;;;;;;4974630;28;19936;-66
2022/01/26 08:32:25;;;;;;;;;;;6.40;59.10;;;;;;4973596;28;19931;-73
2022/01/26 08:34:50;;;;;;;;;;;6.50;59.70;;;;;;4974881;28;19911;-73
2022/01/26 08:37:16;;;;;;;;;;;6.70;58.90;;;;;;4975316;28;19918;-73
2022/01/26 08:39:41;;;;;;;;;;;6.70;58.40;;;;;;4975686;28;19945;-70
2022/01/26 08:42:07;;;;;;;;;;;6.80;58.00;;;;;;4975561;28;19910;-70
2022/01/26 08:44:36;;;;;;;;;;;6.80;57.90;;;;;;4975286;28;20020;-72
2022/01/26 08:47:02;;;;;;;;;;;6.90;57.60;;;;;;4975500;28;19916;-72
2022/01/26 08:49:28;;;;;;;;;;;7.10;57.10;;;;;;4975540;28;19910;-65
2022/01/26 08:51:54;;;;;;;;;;;7.00;57.10;;;;;;4980111;28;19964;-71
2022/01/26 08:54:22;;;;;;;;;;;7.10;57.70;;;;;;4983597;28;19953;-69
2022/01/26 08:56:51;;;;;;;;;;;7.30;57.60;;;;;;4984778;28;20001;-68
2022/01/26 08:59:20;;;;;;;;;;;7.40;57.30;;;;;;4980876;28;20013;-70
2022/01/26 09:01:46;;;;;;;;;;;7.50;56.70;;;;;;4984007;28;20275;-71
2022/01/26 09:04:12;;;;;;;;;;;7.40;56.60;;;;;;4988004;28;20418;-67
2022/01/26 09:06:51;;;;;;;;;;;7.40;56.50;;;;;;4985871;28;19926;-65
2022/01/26 09:09:17;;;;;;;;;;;7.30;56.00;;;;;;4986660;28;19929;-66
2022/01/26 09:11:44;;;;;;;;;;;7.40;56.20;;;;;;4986237;28;20005;-70
2022/01/26 09:14:12;;;;;;;;;;;7.20;55.90;;;;;;4985730;28;19986;-71
2022/01/26 09:16:38;;;;;;;;;;;7.30;56.70;;;;;;4985098;28;19910;-69
2022/01/26 09:19:13;;;;;;;;;;;7.30;56.50;;;;;;4983379;28;19934;-70
2022/01/26 09:21:39;;;;;;;;;;;7.50;56.00;;;;;;4984191;28;19910;-71
2022/01/26 09:24:05;;;;;;;;;;;7.40;56.50;;;;;;4983698;28;19918;-67
2022/01/26 09:26:30;;;;;;;;;;;7.50;56.50;;;;;;4973567;28;20017;-70
2022/01/26 09:28:56;;;;;;;;;;;7.60;56.20;;;;;;4974514;28;19915;-72
2022/01/26 09:31:21;;;;;;;;;;;7.70;56.20;;;;;;4974305;28;19911;-74
2022/01/26 09:33:47;;;;;;;;;;;7.60;55.90;;;;;;4972652;28;19915;-66
2022/01/26 09:36:13;;;;;;;;;;;7.60;56.10;;;;;;4971681;28;20402;-66
2022/01/26 09:38:39;;;;;;;;;;;7.60;55.30;;;;;;4970257;28;19925;-68
2022/01/26 09:41:04;;;;;;;;;;;7.70;55.40;;;;;;4975786;28;20004;-67
2022/01/26 09:43:30;;;;;;;;;;;7.80;55.30;;;;;;4976063;28;20010;-75
2022/01/26 09:45:56;;;;;;;;;;;7.90;55.40;;;;;;4973872;28;20283;-62
2022/01/26 09:48:22;;;;;;;;;;;8.10;55.50;;;;;;4969523;28;19921;-70
2022/01/26 09:50:54;;;;;;;;;;;8.00;54.80;;;;;;4972884;28;19914;-72
2022/01/26 09:53:22;;;;;;;;;;;8.00;54.60;;;;;;4977787;28;19949;-73
2022/01/26 09:55:48;;;;;;;;;;;8.10;54.70;;;;;;4970159;28;20000;-69
2022/01/26 09:58:15;;;;;;;;;;;8.20;54.30;;;;;;4977764;28;20377;-70
2022/01/26 10:00:42;;;;;;;;;;;8.30;53.80;;;;;;4977379;28;19914;-72
2022/01/26 10:03:08;;;;;;;;;;;8.30;53.90;;;;;;4977493;28;20260;-68
2022/01/26 10:05:41;;;;;;;;;;;8.40;54.30;;;;;;4975625;28;19930;-69
2022/01/26 10:15:27;;;;;;;;;;;8.60;53.20;;;;;;4977165;28;19911;-71
2022/01/26 10:18:57;;;;;;;;;;;8.90;53.50;;;;;;4977092;28;19917;-64
2022/01/26 10:21:23;;;;;;;;;;;9.00;52.60;;;;;;4977083;28;20001;-67
2022/01/26 10:23:49;;;;;;;;;;;9.10;52.80;;;;;;4975863;28;19910;-73
2022/01/26 10:26:16;;;;;;;;;;;9.30;52.60;;;;;;4976845;28;19917;-72
2022/01/26 10:44:04;;;;;;;;;;;9.60;52.00;;;;;;4987176;28;20396;-69
2022/01/26 10:46:39;;;;;;;;;;;9.80;51.80;;;;;;4996550;28;19946;-70
2022/01/26 10:49:19;;;;;;;;;;;9.90;51.60;;;;;;4995163;28;20056;-69
2022/01/26 10:54:21;;;;;;;;;;;10.00;52.90;;;;;;4996860;28;19910;-72
2022/01/26 10:56:48;;;;;;;;;;;10.20;53.60;;;;;;4996375;28;19909;-69
2022/01/26 10:59:13;;;;;;;;;;;10.40;52.80;;;;;;4996520;28;19914;-72
2022/01/26 11:01:39;;;;;;;;;;;10.40;52.30;;;;;;4996426;28;19916;-75
2022/01/26 11:04:06;;;;;;;;;;;10.50;52.30;;;;;;4995326;28;19917;-74
2022/01/26 11:06:31;;;;;;;;;;;10.40;52.60;;;;;;4996207;28;19921;-71
2022/01/26 11:09:07;;;;;;;;;;;10.50;53.30;;;;;;4995923;28;19910;-71
2022/01/26 11:11:32;;;;;;;;;;;10.40;53.50;;;;;;4996214;28;20024;-73
2022/01/26 11:13:58;;;;;;;;;;;10.50;53.60;;;;;;4994235;28;20381;-68
2022/01/26 11:16:24;;;;;;;;;;;10.60;53.30;;;;;;4995741;28;19914;-65
2022/01/26 11:18:51;;;;;;;;;;;10.60;53.40;;;;;;4995621;28;20073;-69
2022/01/26 11:21:37;;;;;;;;;;;10.50;54.00;;;;;;4995522;28;19909;-66
2022/01/26 11:24:18;;;;;;;;;;;10.10;54.60;;;;;;4995791;28;19925;-69
2022/01/26 11:26:45;;;;;;;;;;;10.00;55.00;;;;;;4995649;28;19910;-71
2022/01/26 11:29:19;;;;;;;;;;;9.80;55.70;;;;;;4993245;28;19914;-67
2022/01/26 11:31:44;;;;;;;;;;;9.70;56.20;;;;;;4995593;28;19956;-64
2022/01/26 11:34:11;;;;;;;;;;;10.00;56.30;;;;;;4995605;28;19914;-71
2022/01/26 11:36:40;;;;;;;;;;;10.00;56.00;;;;;;4995357;28;19917;-67
2022/01/26 11:47:24;;;;;;;;;;;9.30;57.50;;;;;;4996389;28;19916;-74
2022/01/26 11:49:51;;;;;;;;;;;9.00;58.40;;;;;;4995623;28;19957;-72
2022/01/26 11:52:21;;;;;;;;;;;9.10;58.20;;;;;;4978685;28;19918;-70
2022/01/26 11:54:56;;;;;;;;;;;9.00;58.10;;;;;;4980986;28;19933;-73
2022/01/26 11:57:37;;;;;;;;;;;9.20;58.20;;;;;;4978276;28;19910;-67
2022/01/26 12:00:06;;;;;;;;;;;8.90;58.10;;;;;;4977717;28;19916;-70
2022/01/26 12:02:58;;;;;;;;;;;9.00;58.80;;;;;;4980845;28;20421;-71
2022/01/26 12:05:24;;;;;;;;;;;9.20;57.60;;;;;;4980409;28;19925;-67
2022/01/26 12:07:54;;;;;;;;;;;9.40;57.60;;;;;;4980619;28;19909;-71
2022/01/26 12:10:31;;;;;;;;;;;9.30;56.20;;;;;;4976391;28;19918;-71
2022/01/26 12:13:19;;;;;;;;;;;9.50;56.90;;;;;;4977712;28;19910;-71
2022/01/26 12:15:53;;;;;;;;;;;9.30;56.90;;;;;;4977920;28;20381;-72
2022/01/26 12:18:28;;;;;;;;;;;9.30;56.40;;;;;;4980152;28;19914;-70
2022/01/26 12:33:13;;;;;;;;;;;9.10;57.80;;;;;;4989231;28;19917;-68
2022/01/26 12:35:04;;;;;;;;;;;9.40;57.10;;;;;;4989191;28;19968;-69
2022/01/26 12:37:41;;;;;;;;;;;9.00;57.70;;;;;;4994727;28;20349;-70
2022/01/26 12:45:24;;;;;;;;;;;9.10;57.70;;;;;;4995340;28;20020;-68
2022/01/26 12:47:50;;;;;;;;;;;9.00;58.10;;;;;;4994964;28;19909;-69
2022/01/26 12:50:16;;;;;;;;;;;9.30;57.80;;;;;;5005258;28;19960;-71
2022/01/26 12:52:48;;;;;;;;;;;9.30;57.50;;;;;;5009386;28;19910;-68
2022/01/26 12:55:20;;;;;;;;;;;9.60;57.40;;;;;;5008665;28;19932;-69
2022/01/26 12:57:45;;;;;;;;;;;9.80;56.90;;;;;;5004467;28;19914;-71
2022/01/26 13:00:11;;;;;;;;;;;9.90;56.40;;;;;;4994308;28;19914;-70
2022/01/26 13:02:37;;;;;;;;;;;10.00;55.80;;;;;;4977656;28;20343;-69
2022/01/26 13:05:03;;;;;;;;;;;10.10;55.20;;;;;;4975468;28;19918;-70
2022/01/26 13:07:29;;;;;;;;;;;10.20;55.40;;;;;;4974733;28;19910;-68
2022/01/26 13:09:55;;;;;;;;;;;9.90;55.40;;;;;;4990207;28;20016;-61
2022/01/26 13:12:32;;;;;;;;;;;10.00;55.90;;;;;;4974761;28;19949;-66
2022/01/26 13:15:20;;;;;;;;;;;10.00;55.60;;;;;;4973841;28;19998;-65
2022/01/26 13:18:05;;;;;;;;;;;10.10;55.40;;;;;;4976510;28;19921;-69
2022/01/26 13:36:12;;;;;;;;;;;10.00;56.00;;;;;;4976428;28;19911;-68
2022/01/26 13:49:52;;;;;;;;;;;9.80;56.20;;;;;;4989249;28;20285;-66
2022/01/26 13:59:56;;;;;;;;;;;9.30;57.80;;;;;;4991378;28;19917;-68
2022/01/26 14:02:23;;;;;;;;;;;9.30;57.80;;;;;;4992988;28;19964;-67
2022/01/26 14:04:48;;;;;;;;;;;9.40;57.60;;;;;;4993639;28;19980;-66
2022/01/26 14:07:14;;;;;;;;;;;9.60;57.50;;;;;;4993504;28;19910;-67
2022/01/26 14:09:41;;;;;;;;;;;9.70;57.10;;;;;;4992151;28;19910;-64
2022/01/26 14:12:11;;;;;;;;;;;9.70;57.10;;;;;;4993334;28;19918;-67
2022/01/26 14:14:41;;;;;;;;;;;9.70;57.10;;;;;;4993608;28;19917;-65
2022/01/26 14:17:14;;;;;;;;;;;9.80;56.90;;;;;;4993576;28;19917;-68
2022/01/26 14:22:59;;;;;;;;;;;9.70;57.10;;;;;;4980290;28;19917;-65
2022/01/26 14:27:52;;;;;;;;;;;9.70;57.30;;;;;;4991132;28;19924;-65
2022/01/26 14:50:54;;;;;;;;;;;9.30;58.50;;;;;;4995411;28;19921;-65
2022/01/26 15:35:02;;;;;;;;;;;7.80;65.70;;;;;;4996247;28;20361;-61
2022/01/26 15:51:09;;;;;;;;;;;7.40;67.40;;;;;;4977919;28;20377;-66
2022/01/26 15:59:04;;;;;;;;;;;7.40;67.30;;;;;;4980594;28;19985;-70
2022/01/26 16:04:24;;;;;;;;;;;7.30;67.60;;;;;;4988063;28;19921;-71
2022/01/26 16:39:23;;;;;;;;;;;6.70;70.40;;;;;;4978299;28;19929;-65
2022/01/26 17:24:18;;;;;;;;;;;6.10;73.40;;;;;;4992796;28;19934;-66
2022/01/26 18:17:18;;;;;;;;;;;5.90;74.40;;;;;;4983471;28;19917;-67
2022/01/26 18:49:12;;;;;;;;;;;5.50;75.30;;;;;;4979624;28;19921;-68
2022/01/26 18:49:43;;;;;;;;;;;5.60;75.80;;;;;;4992394;28;19916;-72
2022/01/26 18:52:09;;;;;;;;;;;5.60;75.30;;;;;;4982226;28;20033;-69
2022/01/26 18:54:35;;;;;;;;;;;5.60;74.90;;;;;;4993276;28;19914;-73
2022/01/26 18:57:03;;;;;;;;;;;5.60;74.90;;;;;;4991970;28;19923;-67
2022/01/26 18:59:29;;;;;;;;;;;5.50;74.80;;;;;;4990073;28;19914;-57
2022/01/26 19:01:56;;;;;;;;;;;5.50;74.70;;;;;;5005231;28;19925;-64
2022/01/26 19:04:31;;;;;;;;;;;5.50;74.60;;;;;;5002443;28;19914;-61
2022/01/26 19:06:58;;;;;;;;;;;5.60;74.90;;;;;;5002926;28;20016;-69
2022/01/26 19:09:27;;;;;;;;;;;5.60;74.40;;;;;;5000876;28;20253;-65
2022/01/26 19:11:53;;;;;;;;;;;5.50;75.10;;;;;;5004577;28;19910;-63
2022/01/26 19:14:22;;;;;;;;;;;5.40;75.30;;;;;;5004489;28;19964;-71
2022/01/26 19:16:54;;;;;;;;;;;5.30;75.10;;;;;;5006154;28;19910;-63
2022/01/26 19:25:26;;;;;;;;;;;5.30;75.60;;;;;;4995673;28;19921;-66
2022/01/26 19:27:41;;;;;;;;;;;5.30;75.70;;;;;;4992573;28;19925;-64
2022/01/26 19:45:59;;;;;;;;;;;5.00;75.90;;;;;;4995640;28;19929;-74
2022/01/26 19:51:09;;;;;;;;;;;5.00;75.70;;;;;;4995036;28;19916;-69
2022/01/26 19:53:35;;;;;;;;;;;4.90;76.50;;;;;;4993346;28;20269;-66
2022/01/26 19:56:01;;;;;;;;;;;4.90;76.30;;;;;;4994336;28;19914;-71
2022/01/26 19:58:26;;;;;;;;;;;5.00;76.40;;;;;;4994777;28;19925;-72
2022/01/26 20:00:53;;;;;;;;;;;5.20;75.60;;;;;;4994710;28;20284;-72
2022/01/26 20:03:21;;;;;;;;;;;5.20;75.00;;;;;;4995323;28;19945;-71
2022/01/26 20:05:47;;;;;;;;;;;5.20;74.40;;;;;;4995597;28;20001;-72
2022/01/26 20:08:41;;;;;;;;;;;5.10;74.50;;;;;;4994572;28;20266;-73
2022/01/26 20:11:21;;;;;;;;;;;5.00;75.00;;;;;;4995015;28;20285;-72
2022/01/26 20:13:47;;;;;;;;;;;5.00;75.30;;;;;;4982063;28;19918;-68
2022/01/26 20:16:13;;;;;;;;;;;5.10;74.80;;;;;;4977158;28;20341;-67
2022/01/26 20:18:39;;;;;;;;;;;5.50;72.10;;;;;;4976709;28;19914;-66
2022/01/26 20:21:04;;;;;;;;;;;5.30;71.50;;;;;;4958742;28;20293;-69
2022/01/26 20:23:33;;;;;;;;;;;5.10;72.20;;;;;;4974422;28;19910;-72
2022/01/26 20:26:01;;;;;;;;;;;5.00;72.90;;;;;;4976878;28;19918;-72
2022/01/26 20:28:28;;;;;;;;;;;5.00;72.80;;;;;;4981440;28;19941;-69
2022/01/26 20:30:54;;;;;;;;;;;4.90;73.40;;;;;;4984549;28;20030;-72
2022/01/26 20:33:20;;;;;;;;;;;5.20;72.70;;;;;;4976829;28;19910;-70
2022/01/26 20:35:46;;;;;;;;;;;5.30;71.00;;;;;;4996512;28;20278;-64
2022/01/26 20:38:11;;;;;;;;;;;5.30;70.00;;;;;;4977815;28;19910;-62
2022/01/26 20:40:37;;;;;;;;;;;5.30;69.00;;;;;;4975611;28;19957;-66
2022/01/26 20:43:03;;;;;;;;;;;5.30;69.60;;;;;;4978285;28;20369;-69
2022/01/26 20:45:30;;;;;;;;;;;5.50;68.00;;;;;;4984259;28;19961;-69
2022/01/26 20:47:57;;;;;;;;;;;5.30;68.40;;;;;;4982239;28;20009;-69
2022/01/26 20:50:24;;;;;;;;;;;5.00;69.50;;;;;;4983837;28;19957;-71
2022/01/26 20:52:49;;;;;;;;;;;5.30;69.10;;;;;;4992218;28;19917;-72
2022/01/26 20:55:15;;;;;;;;;;;5.10;69.70;;;;;;4987224;28;19910;-68
2022/01/26 20:57:43;;;;;;;;;;;4.90;69.80;;;;;;4975216;28;19926;-69
2022/01/26 21:00:10;;;;;;;;;;;4.80;70.30;;;;;;4974487;28;19964;-69
2022/01/26 21:02:36;;;;;;;;;;;4.50;72.00;;;;;;4974720;28;20247;-69
2022/01/26 21:05:03;;;;;;;;;;;4.50;72.10;;;;;;4973721;28;19922;-67
2022/01/26 21:07:29;;;;;;;;;;;4.40;72.40;;;;;;4974262;28;20401;-69
2022/01/26 21:09:54;;;;;;;;;;;4.40;73.20;;;;;;4974460;28;19957;-70
2022/01/26 21:12:20;;;;;;;;;;;4.30;73.10;;;;;;4974161;28;19910;-68
2022/01/26 21:14:47;;;;;;;;;;;4.30;73.40;;;;;;4974146;28;19912;-67
2022/01/26 21:17:13;;;;;;;;;;;4.40;73.20;;;;;;4974265;28;19917;-68
2022/01/26 21:19:39;;;;;;;;;;;4.40;72.60;;;;;;4973837;28;19910;-72
2022/01/26 21:22:05;;;;;;;;;;;4.60;71.80;;;;;;4974446;28;19910;-72
2022/01/26 21:24:30;;;;;;;;;;;4.60;69.60;;;;;;4974266;28;20282;-72
2022/01/26 21:26:56;;;;;;;;;;;4.90;68.80;;;;;;4974540;28;19918;-70
2022/01/26 21:29:25;;;;;;;;;;;4.70;69.40;;;;;;4989212;28;20380;-72
2022/01/26 21:31:51;;;;;;;;;;;4.50;70.20;;;;;;4974440;28;19918;-72
2022/01/26 21:34:16;;;;;;;;;;;4.40;71.00;;;;;;4976100;28;20329;-70
2022/01/26 21:36:42;;;;;;;;;;;4.40;71.00;;;;;;4978443;28;19918;-68
2022/01/26 21:39:08;;;;;;;;;;;4.40;70.80;;;;;;4978264;28;19964;-70
2022/01/26 21:41:37;;;;;;;;;;;4.30;71.00;;;;;;4993254;28;19918;-71
2022/01/26 21:44:04;;;;;;;;;;;4.30;71.50;;;;;;4978248;28;19929;-70
2022/01/26 21:46:30;;;;;;;;;;;4.20;72.10;;;;;;4978509;28;19914;-70
2022/01/26 21:48:56;;;;;;;;;;;4.10;72.30;;;;;;4978404;28;20345;-72
2022/01/26 21:51:22;;;;;;;;;;;4.10;73.00;;;;;;4978024;28;19910;-68
2022/01/26 21:53:47;;;;;;;;;;;4.10;73.20;;;;;;4978116;28;20371;-69
2022/01/26 21:56:13;;;;;;;;;;;4.10;72.50;;;;;;4977913;28;19918;-68